createdAt,value
2022-12-28T00:01:29.330Z,13.88
2022-12-28T00:03:56.180Z,13.96
2022-12-28T00:06:23.995Z,13.95
2022-12-28T00:08:53.711Z,13.96
2022-12-28T00:11:30.473Z,13.97
2022-12-28T00:14:00.155Z,13.98
2022-12-28T00:16:34.793Z,13.96
2022-12-28T00:19:03.276Z,13.97
2022-12-28T00:21:29.843Z,13.95
2022-12-28T00:23:58.547Z,13.97
2022-12-28T00:26:27.004Z,13.98
2022-12-28T00:28:56.858Z,13.97
2022-12-28T00:31:28.346Z,13.96
2022-12-28T00:33:54.772Z,13.97
2022-12-28T00:36:21.132Z,13.99
2022-12-28T00:38:47.496Z,14.00
2022-12-28T00:41:13.901Z,13.95
2022-12-28T00:43:40.405Z,13.97
2022-12-28T00:46:06.987Z,13.93
2022-12-28T00:48:33.451Z,13.96
2022-12-28T00:51:26.295Z,13.96
2022-12-28T00:53:52.671Z,13.98
2022-12-28T00:56:22.014Z,13.99
2022-12-28T00:58:48.819Z,13.99
2022-12-28T01:01:19.709Z,13.98
2022-12-28T01:03:46.659Z,13.99
2022-12-28T01:06:15.036Z,14.00
2022-12-28T01:08:42.103Z,14.00
2022-12-28T01:11:10.076Z,14.00
2022-12-28T01:13:37.201Z,13.98
2022-12-28T01:16:15.178Z,13.99
2022-12-28T01:18:42.615Z,14.01
2022-12-28T01:21:11.281Z,14.01
2022-12-28T01:23:37.755Z,13.98
2022-12-28T01:26:04.730Z,13.98
2022-12-28T01:28:31.189Z,14.02
2022-12-28T01:31:02.495Z,13.95
2022-12-28T01:33:28.905Z,13.96
2022-12-28T01:35:55.302Z,14.01
2022-12-28T01:38:21.680Z,14.00
2022-12-28T01:40:48.105Z,14.00
2022-12-28T01:43:15.407Z,13.98
2022-12-28T01:45:56.509Z,13.99
2022-12-28T01:48:25.437Z,14.00
2022-12-28T01:50:53.055Z,14.00
2022-12-28T01:53:20.938Z,14.01
2022-12-28T01:55:48.831Z,14.03
2022-12-28T01:58:19.536Z,13.99
2022-12-28T02:00:46.029Z,14.04
2022-12-28T02:03:18.848Z,13.98
2022-12-28T02:05:49.220Z,14.04
2022-12-28T02:08:43.048Z,14.02
2022-12-28T02:11:13.666Z,14.03
2022-12-28T02:13:42.641Z,14.02
2022-12-28T02:16:11.034Z,14.06
2022-12-28T02:18:38.250Z,14.03
2022-12-28T02:21:26.277Z,14.06
2022-12-28T02:24:08.783Z,14.04
2022-12-28T02:26:38.182Z,14.06
2022-12-28T02:29:22.239Z,14.09
2022-12-28T02:32:14.753Z,14.06
2022-12-28T02:35:21.581Z,14.06
2022-12-28T02:37:53.979Z,14.03
2022-12-28T02:40:25.647Z,14.08
2022-12-28T02:42:54.568Z,14.09
2022-12-28T02:46:00.370Z,14.06
2022-12-28T02:48:46.034Z,14.07
2022-12-28T02:51:12.440Z,14.09
2022-12-28T02:53:47.891Z,14.11
2022-12-28T02:56:34.856Z,14.12
2022-12-28T02:59:10.516Z,13.97
2022-12-28T03:02:02.395Z,14.04
2022-12-28T03:04:59.849Z,14.07
2022-12-28T03:07:55.005Z,14.09
2022-12-28T03:10:39.240Z,14.11
2022-12-28T03:13:32.350Z,14.09
2022-12-28T03:16:04.767Z,14.12
2022-12-28T03:18:52.806Z,14.12
2022-12-28T03:21:39.165Z,14.13
2022-12-28T03:24:26.433Z,14.11
2022-12-28T03:27:12.978Z,14.14
2022-12-28T03:30:05.492Z,14.11
2022-12-28T03:32:32.140Z,14.08
2022-12-28T03:34:58.611Z,14.15
2022-12-28T03:37:32.281Z,14.17
2022-12-28T03:40:09.112Z,14.14
2022-12-28T03:43:01.880Z,14.17
2022-12-28T03:45:47.479Z,14.16
2022-12-28T03:48:15.858Z,14.13
2022-12-28T03:50:46.087Z,14.13
2022-12-28T03:53:12.887Z,14.17
2022-12-28T03:55:40.491Z,14.17
2022-12-28T03:58:06.911Z,14.15
2022-12-28T04:00:33.763Z,14.15
2022-12-28T04:03:00.338Z,14.16
2022-12-28T04:05:26.819Z,14.17
2022-12-28T04:07:53.468Z,14.15
2022-12-28T04:10:19.949Z,14.20
2022-12-28T04:12:46.348Z,14.20
2022-12-28T04:15:12.791Z,14.19
2022-12-28T04:17:39.259Z,14.18
2022-12-28T04:20:06.472Z,14.20
2022-12-28T04:22:32.905Z,14.18
2022-12-28T04:24:59.307Z,14.19
2022-12-28T04:27:25.711Z,14.21
2022-12-28T04:29:52.086Z,14.18
2022-12-28T04:32:18.524Z,14.19
2022-12-28T04:34:48.644Z,14.20
2022-12-28T04:37:15.649Z,14.21
2022-12-28T04:39:55.980Z,14.21
2022-12-28T04:42:26.556Z,14.20
2022-12-28T04:44:53.033Z,14.22
2022-12-28T04:47:19.454Z,14.24
2022-12-28T04:49:45.932Z,14.19
2022-12-28T04:52:12.498Z,14.23
2022-12-28T04:54:39.104Z,14.23
2022-12-28T04:57:06.683Z,14.20
2022-12-28T04:59:33.085Z,14.23
2022-12-28T05:01:59.536Z,14.22
2022-12-28T05:04:26.050Z,14.23
2022-12-28T05:06:52.408Z,14.27
2022-12-28T05:09:19.514Z,14.25
2022-12-28T05:11:46.061Z,14.24
2022-12-28T05:14:12.452Z,14.27
2022-12-28T05:16:38.941Z,14.25
2022-12-28T05:19:05.419Z,14.25
2022-12-28T05:21:32.040Z,14.26
2022-12-28T05:23:58.647Z,14.27
2022-12-28T05:26:28.786Z,14.30
2022-12-28T05:28:56.118Z,14.29
2022-12-28T05:31:23.689Z,14.30
2022-12-28T05:33:50.311Z,14.29
2022-12-28T05:36:19.285Z,14.31
2022-12-28T05:38:46.251Z,14.30
2022-12-28T05:41:14.209Z,14.31
2022-12-28T05:43:41.414Z,14.32
2022-12-28T05:46:10.937Z,14.33
2022-12-28T05:48:39.460Z,14.28
2022-12-28T05:51:18.101Z,14.33
2022-12-28T05:53:45.116Z,14.27
2022-12-28T05:56:18.604Z,14.33
2022-12-28T05:58:47.217Z,14.34
2022-12-28T06:01:16.381Z,14.36
2022-12-28T06:03:43.845Z,14.29
2022-12-28T06:06:17.990Z,14.32
2022-12-28T06:08:46.390Z,14.34
2022-12-28T06:11:15.734Z,14.33
2022-12-28T06:13:42.832Z,14.35
2022-12-28T06:16:12.496Z,14.38
2022-12-28T06:18:39.289Z,14.35
2022-12-28T06:21:11.847Z,14.36
2022-12-28T06:23:38.843Z,14.38
2022-12-28T06:26:07.183Z,14.38
2022-12-28T06:28:36.277Z,14.36
2022-12-28T06:31:08.533Z,14.40
2022-12-28T06:33:35.147Z,14.41
2022-12-28T06:36:02.110Z,14.41
2022-12-28T06:38:32.403Z,14.41
2022-12-28T06:41:14.982Z,14.37
2022-12-28T06:43:43.157Z,14.39
2022-12-28T06:46:10.379Z,14.41
2022-12-28T06:48:37.580Z,14.43
2022-12-28T06:51:11.202Z,14.45
2022-12-28T06:53:38.184Z,14.46
2022-12-28T06:56:06.392Z,14.46
2022-12-28T06:58:33.547Z,14.49
2022-12-28T07:01:14.739Z,14.47
2022-12-28T07:03:42.397Z,14.45
2022-12-28T07:06:09.287Z,14.51
2022-12-28T07:08:36.218Z,14.53
2022-12-28T07:11:14.192Z,14.55
2022-12-28T07:13:41.081Z,14.53
2022-12-28T07:16:11.236Z,14.57
2022-12-28T07:18:38.300Z,14.56
2022-12-28T07:21:11.476Z,14.57
2022-12-28T07:23:37.882Z,14.63
2022-12-28T07:26:15.897Z,14.62
2022-12-28T07:28:44.924Z,14.65
2022-12-28T07:31:14.769Z,14.68
2022-12-28T07:33:41.580Z,14.69
2022-12-28T07:36:10.253Z,14.67
2022-12-28T07:38:36.938Z,14.69
2022-12-28T07:41:12.459Z,14.65
2022-12-28T07:43:38.953Z,14.69
2022-12-28T07:46:09.435Z,14.72
2022-12-28T07:48:36.981Z,14.76
2022-12-28T07:51:19.786Z,14.76
2022-12-28T07:53:50.120Z,14.76
2022-12-28T07:56:17.355Z,14.80
2022-12-28T08:01:16.165Z,14.85
2022-12-28T08:03:44.310Z,14.87
2022-12-28T08:06:18.679Z,14.90
2022-12-28T08:08:47.416Z,14.91
2022-12-28T08:11:17.077Z,14.93
2022-12-28T08:13:45.400Z,14.94
2022-12-28T08:16:14.090Z,14.96
2022-12-28T08:18:41.722Z,14.96
2022-12-28T08:21:12.130Z,14.99
2022-12-28T08:23:38.583Z,14.99
2022-12-28T08:26:07.085Z,14.98
2022-12-28T08:28:34.127Z,15.03
2022-12-28T08:31:14.325Z,15.06
2022-12-28T08:33:41.007Z,15.04
2022-12-28T08:36:09.057Z,15.08
2022-12-28T08:38:39.975Z,15.10
2022-12-28T08:41:08.841Z,15.08
2022-12-28T08:43:35.306Z,15.12
2022-12-28T08:46:05.979Z,15.14
2022-12-28T08:48:33.843Z,15.15
2022-12-28T08:51:12.715Z,15.18
2022-12-28T08:53:40.423Z,15.15
2022-12-28T08:56:27.749Z,15.20
2022-12-28T08:58:55.205Z,15.19
2022-12-28T09:01:28.255Z,15.22
2022-12-28T09:03:56.395Z,15.23
2022-12-28T09:06:26.286Z,15.26
2022-12-28T09:09:10.558Z,15.27
2022-12-28T09:11:38.579Z,15.29
2022-12-28T09:14:07.758Z,15.32
2022-12-28T09:16:35.593Z,15.34
2022-12-28T09:19:03.657Z,15.40
2022-12-28T09:21:32.958Z,15.40
2022-12-28T09:23:59.550Z,15.45
2022-12-28T09:26:32.240Z,15.48
2022-12-28T09:29:04.177Z,15.51
2022-12-28T09:31:32.703Z,15.47
2022-12-28T09:36:48.722Z,15.51
2022-12-28T09:39:18.057Z,15.57
2022-12-28T09:42:03.411Z,15.58
2022-12-28T09:44:33.530Z,15.57
2022-12-28T09:47:17.239Z,15.61
2022-12-28T09:49:55.944Z,15.62
2022-12-28T09:52:34.511Z,15.64
2022-12-28T09:55:11.321Z,15.66
2022-12-28T09:57:44.776Z,15.66
2022-12-28T10:00:17.655Z,15.70
2022-12-28T10:02:49.428Z,15.72
2022-12-28T10:05:16.259Z,15.71
2022-12-28T10:07:43.390Z,15.76
2022-12-28T10:10:17.070Z,15.79
2022-12-28T10:12:44.532Z,15.80
2022-12-28T10:15:15.496Z,15.83
2022-12-28T10:17:43.069Z,15.84
2022-12-28T10:20:18.427Z,15.83
2022-12-28T10:22:50.357Z,15.87
2022-12-28T10:25:26.183Z,15.90
2022-12-28T10:27:53.512Z,15.91
2022-12-28T10:30:27.935Z,15.93
2022-12-28T10:33:02.463Z,15.97
2022-12-28T10:35:48.383Z,15.97
2022-12-28T10:38:36.482Z,15.97
2022-12-28T10:41:12.003Z,16.00
2022-12-28T10:43:45.736Z,15.90
2022-12-28T10:46:18.519Z,16.02
2022-12-28T10:48:55.825Z,16.04
2022-12-28T10:51:24.700Z,16.11
2022-12-28T10:53:55.290Z,16.18
2022-12-28T10:56:27.632Z,16.22
2022-12-28T10:59:15.404Z,16.24
2022-12-28T11:01:42.954Z,16.22
2022-12-28T11:04:18.565Z,16.30
2022-12-28T11:06:56.910Z,16.29
2022-12-28T11:09:26.652Z,16.29
2022-12-28T11:11:56.962Z,16.32
2022-12-28T11:14:29.438Z,16.33
2022-12-28T11:16:55.978Z,16.34
2022-12-28T11:19:24.678Z,16.34
2022-12-28T11:21:51.695Z,16.38
2022-12-28T11:24:19.659Z,16.36
2022-12-28T11:26:49.308Z,16.42
2022-12-28T11:29:17.867Z,16.41
2022-12-28T11:32:16.411Z,16.39
2022-12-28T11:34:42.888Z,16.40
2022-12-28T11:37:15.870Z,16.40
2022-12-28T11:39:45.465Z,16.40
2022-12-28T11:42:41.491Z,16.42
2022-12-28T11:45:16.805Z,16.42
2022-12-28T11:47:43.461Z,16.45
2022-12-28T11:50:34.606Z,16.45
2022-12-28T11:53:03.427Z,16.49
2022-12-28T11:55:44.356Z,16.49
2022-12-28T11:58:35.600Z,16.52
2022-12-28T12:01:04.999Z,16.54
2022-12-28T12:03:59.360Z,16.56
2022-12-28T12:06:48.586Z,16.56
2022-12-28T12:09:20.913Z,16.59
2022-12-28T12:11:55.308Z,16.58
2022-12-28T12:14:26.806Z,16.62
2022-12-28T12:17:07.679Z,16.61
2022-12-28T12:19:38.837Z,16.63
2022-12-28T12:22:28.960Z,16.64
2022-12-28T12:25:18.005Z,16.65
2022-12-28T12:27:57.097Z,16.68
2022-12-28T12:30:24.477Z,16.70
2022-12-28T12:32:58.301Z,16.73
2022-12-28T12:35:27.073Z,16.74
2022-12-28T12:38:24.273Z,16.73
2022-12-28T12:41:12.662Z,16.70
2022-12-28T12:44:03.588Z,16.71
2022-12-28T12:46:53.700Z,16.69
2022-12-28T12:49:54.720Z,16.69
2022-12-28T12:52:29.653Z,16.71
2022-12-28T12:55:18.264Z,16.73
2022-12-28T12:58:03.099Z,16.75
2022-12-28T13:00:49.570Z,16.74
2022-12-28T13:03:34.116Z,16.74
2022-12-28T13:06:03.634Z,16.73
2022-12-28T13:08:39.948Z,16.75
2022-12-28T13:11:10.544Z,16.76
2022-12-28T13:13:39.967Z,16.76
2022-12-28T13:16:15.240Z,16.77
2022-12-28T13:18:53.158Z,16.75
2022-12-28T13:21:22.067Z,16.74
2022-12-28T13:23:49.451Z,16.74
2022-12-28T13:26:16.728Z,16.74
2022-12-28T13:28:51.452Z,16.74
2022-12-28T13:31:23.756Z,16.69
2022-12-28T13:34:04.608Z,16.74
2022-12-28T13:36:31.410Z,16.76
2022-12-28T13:39:25.526Z,16.75
2022-12-28T13:41:55.092Z,16.65
2022-12-28T13:44:28.545Z,16.77
2022-12-28T13:47:07.061Z,16.79
2022-12-28T13:49:40.025Z,16.79
2022-12-28T13:52:10.333Z,16.81
2022-12-28T13:54:38.347Z,16.78
2022-12-28T13:57:36.663Z,16.77
2022-12-28T13:59:56.028Z,16.79
2022-12-28T14:02:24.456Z,16.78
2022-12-28T14:04:53.980Z,16.74
2022-12-28T14:07:24.655Z,16.77
2022-12-28T14:09:52.477Z,16.73
2022-12-28T14:12:20.005Z,16.71
2022-12-28T14:14:47.821Z,16.66
2022-12-28T14:17:15.036Z,16.67
2022-12-28T14:19:42.936Z,16.63
2022-12-28T14:22:28.011Z,16.61
2022-12-28T14:25:13.240Z,16.59
2022-12-28T14:28:03.717Z,16.58
2022-12-28T14:30:40.470Z,16.56
2022-12-28T14:33:24.602Z,16.55
2022-12-28T14:36:03.228Z,16.56
2022-12-28T14:38:58.279Z,16.52
2022-12-28T14:41:34.595Z,16.53
2022-12-28T14:44:03.268Z,16.54
2022-12-28T14:46:41.222Z,16.56
2022-12-28T14:49:29.985Z,16.56
2022-12-28T14:51:57.330Z,16.58
2022-12-28T14:54:26.145Z,16.61
2022-12-28T14:56:58.783Z,16.62
2022-12-28T14:59:30.588Z,16.62
2022-12-28T15:01:57.287Z,16.58
2022-12-28T15:04:39.069Z,16.59
2022-12-28T15:07:08.199Z,16.58
2022-12-28T15:09:35.153Z,16.56
2022-12-28T15:12:10.279Z,16.54
2022-12-28T15:14:37.139Z,16.49
2022-12-28T15:17:03.919Z,16.51
2022-12-28T15:19:30.408Z,16.48
2022-12-28T15:21:56.886Z,16.43
2022-12-28T15:24:26.239Z,16.44
2022-12-28T15:26:55.223Z,16.41
2022-12-28T15:29:39.560Z,16.40
2022-12-28T15:32:08.355Z,16.37
2022-12-28T15:34:34.729Z,16.38
2022-12-28T15:37:01.145Z,16.37
2022-12-28T15:39:27.810Z,16.37
2022-12-28T15:41:55.751Z,16.35
2022-12-28T15:44:22.383Z,16.29
2022-12-28T15:46:49.975Z,16.33
2022-12-28T15:49:17.932Z,16.32
2022-12-28T15:51:48.707Z,16.29
2022-12-28T15:54:15.327Z,16.30
2022-12-28T15:56:42.434Z,16.29
2022-12-28T15:59:14.293Z,16.26
2022-12-28T16:01:43.352Z,16.26
2022-12-28T16:04:10.425Z,16.24
2022-12-28T16:06:43.630Z,16.25
2022-12-28T16:09:11.630Z,16.23
2022-12-28T16:11:38.096Z,16.22
2022-12-28T16:14:06.056Z,16.22
2022-12-28T16:16:36.279Z,16.23
2022-12-28T16:19:03.385Z,16.19
2022-12-28T16:21:30.054Z,16.16
2022-12-28T16:23:59.278Z,16.18
2022-12-28T16:26:26.004Z,16.17
2022-12-28T16:28:52.726Z,16.19
2022-12-28T16:31:29.825Z,16.18
2022-12-28T16:34:01.483Z,16.15
2022-12-28T16:36:28.159Z,16.13
2022-12-28T16:38:55.029Z,16.11
2022-12-28T16:41:21.848Z,16.12
2022-12-28T16:43:50.045Z,16.10
2022-12-28T16:46:19.804Z,16.08
2022-12-28T16:48:46.274Z,16.05
2022-12-28T16:51:12.690Z,16.05
2022-12-28T16:53:39.103Z,16.00
2022-12-28T16:56:06.833Z,16.03
2022-12-28T16:58:33.812Z,15.99
2022-12-28T17:01:07.121Z,15.98
2022-12-28T17:03:34.317Z,15.95
2022-12-28T17:06:00.977Z,15.93
2022-12-28T17:08:27.479Z,15.95
2022-12-28T17:10:53.948Z,15.93
2022-12-28T17:13:20.468Z,15.89
2022-12-28T17:15:46.982Z,15.90
2022-12-28T17:18:13.739Z,15.89
2022-12-28T17:20:41.193Z,15.89
2022-12-28T17:23:08.341Z,15.88
2022-12-28T17:25:35.577Z,15.88
2022-12-28T17:28:02.030Z,15.83
2022-12-28T17:30:28.674Z,15.83
2022-12-28T17:32:55.051Z,15.83
2022-12-28T17:35:22.322Z,15.82
2022-12-28T17:37:48.986Z,15.79
2022-12-28T17:40:15.463Z,15.77
2022-12-28T17:42:41.828Z,15.77
2022-12-28T17:45:11.755Z,15.74
2022-12-28T17:47:38.772Z,15.75
2022-12-28T17:50:06.404Z,15.71
2022-12-28T17:52:32.843Z,15.70
2022-12-28T17:54:59.254Z,15.69
2022-12-28T17:57:25.708Z,15.69
2022-12-28T17:59:52.068Z,15.68
2022-12-28T18:02:18.619Z,15.65
2022-12-28T18:04:45.340Z,15.65
2022-12-28T18:07:11.752Z,15.66
2022-12-28T18:09:38.206Z,15.64
2022-12-28T18:12:04.831Z,15.65
2022-12-28T18:14:31.193Z,15.65
2022-12-28T18:16:57.682Z,15.68
2022-12-28T18:19:24.117Z,15.64
2022-12-28T18:21:50.530Z,15.68
2022-12-28T18:24:20.633Z,15.67
2022-12-28T18:26:48.062Z,15.67
2022-12-28T18:29:14.580Z,15.62
2022-12-28T18:31:41.067Z,15.67
2022-12-28T18:34:07.517Z,15.67
2022-12-28T18:36:34.119Z,15.67
2022-12-28T18:39:01.876Z,15.68
2022-12-28T18:41:33.720Z,15.67
2022-12-28T18:44:02.530Z,15.67
2022-12-28T18:46:28.999Z,15.65
2022-12-28T18:48:56.555Z,15.65
2022-12-28T18:51:23.255Z,15.64
2022-12-28T18:53:50.741Z,15.66
2022-12-28T18:56:19.752Z,15.66
2022-12-28T18:58:54.385Z,15.66
2022-12-28T19:04:10.831Z,15.64
2022-12-28T19:06:38.276Z,15.65
2022-12-28T19:09:07.010Z,15.64
2022-12-28T19:11:33.715Z,15.63
2022-12-28T19:14:05.838Z,15.64
2022-12-28T19:16:32.636Z,15.63
2022-12-28T19:18:59.993Z,15.63
2022-12-28T19:21:37.685Z,15.59
2022-12-28T19:24:12.407Z,15.61
2022-12-28T19:26:38.949Z,15.59
2022-12-28T19:29:07.128Z,15.61
2022-12-28T19:31:34.024Z,15.59
2022-12-28T19:34:00.509Z,15.59
2022-12-28T19:36:27.140Z,15.57
2022-12-28T19:38:55.006Z,15.57
2022-12-28T19:41:24.902Z,15.57
2022-12-28T19:43:51.827Z,15.59
2022-12-28T19:46:21.595Z,15.59
2022-12-28T19:48:48.182Z,15.60
2022-12-28T19:51:15.051Z,15.59
2022-12-28T19:53:41.924Z,15.58
2022-12-28T19:56:12.051Z,15.61
2022-12-28T19:58:39.419Z,15.60
2022-12-28T20:01:08.250Z,15.60
2022-12-28T20:03:35.282Z,15.61
2022-12-28T20:06:06.231Z,15.62
2022-12-28T20:08:33.663Z,15.62
2022-12-28T20:11:00.144Z,15.58
2022-12-28T20:13:26.517Z,15.61
2022-12-28T20:15:53.136Z,15.63
2022-12-28T20:18:19.605Z,15.62
2022-12-28T20:21:18.021Z,15.64
2022-12-28T20:23:35.155Z,15.61
2022-12-28T20:26:01.597Z,15.60
2022-12-28T20:28:28.070Z,15.62
2022-12-28T20:31:00.283Z,15.61
2022-12-28T20:33:26.805Z,15.64
2022-12-28T20:36:02.050Z,15.64
2022-12-28T20:38:31.618Z,15.61
2022-12-28T20:41:47.682Z,15.62
2022-12-28T20:44:20.695Z,15.59
2022-12-28T20:46:47.169Z,15.62
2022-12-28T20:49:13.752Z,15.63
2022-12-28T20:51:42.231Z,15.59
2022-12-28T20:54:10.372Z,15.56
2022-12-28T20:56:38.515Z,15.65
2022-12-28T20:59:05.613Z,15.64
2022-12-28T21:01:32.097Z,15.65
2022-12-28T21:03:58.745Z,15.66
2022-12-28T21:06:25.226Z,15.62
2022-12-28T21:08:51.729Z,15.66
2022-12-28T21:11:18.942Z,15.63
2022-12-28T21:13:45.663Z,15.65
2022-12-28T21:16:14.355Z,15.67
2022-12-28T21:18:41.699Z,15.67
2022-12-28T21:21:14.923Z,15.69
2022-12-28T21:23:41.907Z,15.67
2022-12-28T21:26:12.603Z,15.68
2022-12-28T21:28:39.009Z,15.69
2022-12-28T21:31:06.181Z,15.68
2022-12-28T21:33:33.712Z,15.70
2022-12-28T21:36:10.585Z,15.67
2022-12-28T21:38:38.530Z,15.70
2022-12-28T21:41:10.826Z,15.66
2022-12-28T21:43:37.751Z,15.70
2022-12-28T21:46:07.671Z,15.68
2022-12-28T21:48:35.946Z,15.67
2022-12-28T21:51:34.314Z,15.71
2022-12-28T21:54:04.266Z,15.69
2022-12-28T21:56:31.718Z,15.68
2022-12-28T21:58:58.869Z,15.71
2022-12-28T22:01:45.514Z,15.71
2022-12-28T22:04:32.792Z,15.69
2022-12-28T22:06:59.714Z,15.69
2022-12-28T22:09:45.588Z,15.70
2022-12-28T22:12:32.402Z,15.70
2022-12-28T22:15:17.659Z,15.65
2022-12-28T22:17:44.541Z,15.67
2022-12-28T22:20:13.957Z,15.71
2022-12-28T22:22:41.668Z,15.71
2022-12-28T22:25:09.354Z,15.68
2022-12-28T22:27:35.748Z,15.73
2022-12-28T22:30:02.257Z,15.71
2022-12-28T22:32:28.661Z,15.73
2022-12-28T22:34:55.065Z,15.73
2022-12-28T22:37:21.657Z,15.72
2022-12-28T22:39:48.076Z,15.69
2022-12-28T22:42:15.608Z,15.73
2022-12-28T22:44:42.091Z,15.72
2022-12-28T22:47:08.478Z,15.73
2022-12-28T22:49:35.011Z,15.71
2022-12-28T22:52:01.432Z,15.72
2022-12-28T22:54:27.817Z,15.75
2022-12-28T22:56:54.174Z,15.76
2022-12-28T22:59:20.588Z,15.75
2022-12-28T23:01:48.288Z,15.75
2022-12-28T23:04:15.722Z,15.74
2022-12-28T23:06:42.228Z,15.76
2022-12-28T23:09:08.726Z,15.75
2022-12-28T23:11:38.326Z,15.76
2022-12-28T23:14:49.510Z,15.73
2022-12-28T23:17:17.166Z,15.73
2022-12-28T23:20:03.747Z,15.74
2022-12-28T23:22:50.539Z,15.74
2022-12-28T23:25:39.436Z,15.69
2022-12-28T23:28:09.843Z,15.73
2022-12-28T23:30:38.231Z,15.71
2022-12-28T23:33:05.049Z,15.74
2022-12-28T23:35:32.299Z,15.75
2022-12-28T23:37:58.885Z,15.75
2022-12-28T23:40:25.548Z,15.75
2022-12-28T23:42:54.011Z,15.73
2022-12-28T23:45:20.532Z,15.75
2022-12-28T23:47:47.150Z,15.75
2022-12-28T23:50:15.672Z,15.73
2022-12-28T23:52:42.157Z,15.71
2022-12-28T23:55:09.992Z,15.72
2022-12-28T23:57:36.659Z,15.72
